createdAt,value
2022-11-29T00:00:39.683Z,8.1
2022-11-29T00:01:40.064Z,8.1
2022-11-29T00:02:40.588Z,8.1
2022-11-29T00:03:41.428Z,8.1
2022-11-29T00:04:42.207Z,8.1
2022-11-29T00:05:42.843Z,8.1
2022-11-29T00:06:43.226Z,8.1
2022-11-29T00:07:43.652Z,8.1
2022-11-29T00:08:44.490Z,8.1
2022-11-29T00:09:44.882Z,8.1
2022-11-29T00:10:45.276Z,8.1
2022-11-29T00:11:45.957Z,8.1
2022-11-29T00:12:46.353Z,8.1
2022-11-29T00:13:47.118Z,8.1
2022-11-29T00:14:47.637Z,8.1
2022-11-29T00:15:48.071Z,8.1
2022-11-29T00:16:48.504Z,8.1
2022-11-29T00:17:48.923Z,8.1
2022-11-29T00:18:49.687Z,8.1
2022-11-29T00:19:50.073Z,8.1
2022-11-29T00:20:50.458Z,8.1
2022-11-29T00:21:50.853Z,8.1
2022-11-29T00:22:51.250Z,8.1
2022-11-29T00:23:52.041Z,8.1
2022-11-29T00:24:52.425Z,8.1
2022-11-29T00:25:52.808Z,8.1
2022-11-29T00:26:53.583Z,8.1
2022-11-29T00:27:53.967Z,8.1
2022-11-29T00:28:54.699Z,8.1
2022-11-29T00:29:55.106Z,8.1
2022-11-29T00:30:55.538Z,8.1
2022-11-29T00:31:55.933Z,8.1
2022-11-29T00:32:56.327Z,8.1
2022-11-29T00:33:57.151Z,8.1
2022-11-29T00:34:59.509Z,8.1
2022-11-29T00:36:00.154Z,8.1
2022-11-29T00:37:00.511Z,8.1
2022-11-29T00:38:00.859Z,8.1
2022-11-29T00:39:01.694Z,8.1
2022-11-29T00:40:02.082Z,8.1
2022-11-29T00:41:02.478Z,8.1
2022-11-29T00:42:03.202Z,8.1
2022-11-29T00:43:03.625Z,8.1
2022-11-29T00:44:04.368Z,8.1
2022-11-29T00:45:04.786Z,8.1
2022-11-29T00:46:05.224Z,8.1
2022-11-29T00:47:05.646Z,8.1
2022-11-29T00:48:06.045Z,8.1
2022-11-29T00:49:06.834Z,8.1
2022-11-29T00:50:07.223Z,8.1
2022-11-29T00:51:07.612Z,8.1
2022-11-29T00:52:07.991Z,8.1
2022-11-29T00:53:08.399Z,8.1
2022-11-29T00:54:09.120Z,8.1
2022-11-29T00:55:09.509Z,8.1
2022-11-29T00:56:09.893Z,8.1
2022-11-29T00:57:10.684Z,8.1
2022-11-29T00:58:11.079Z,8.1
2022-11-29T00:59:11.808Z,8.1
2022-11-29T01:00:12.188Z,8.1
2022-11-29T01:01:12.603Z,8.1
2022-11-29T01:02:13.060Z,8.1
2022-11-29T01:03:13.465Z,8.1
2022-11-29T01:04:13.861Z,8.1
2022-11-29T01:05:14.266Z,8.1
2022-11-29T01:06:14.648Z,8.1
2022-11-29T01:07:15.088Z,8.1
2022-11-29T01:08:15.550Z,8.1
2022-11-29T01:09:15.993Z,8.1
2022-11-29T01:10:16.366Z,8.1
2022-11-29T01:11:16.759Z,8.1
2022-11-29T01:12:17.555Z,8.1
2022-11-29T01:13:17.940Z,8.1
2022-11-29T01:14:18.354Z,8.1
2022-11-29T01:15:18.732Z,8.1
2022-11-29T01:16:19.177Z,8.1
2022-11-29T01:17:19.583Z,8.1
2022-11-29T01:18:19.973Z,8.1
2022-11-29T01:19:20.383Z,8.1
2022-11-29T01:20:20.781Z,8.1
2022-11-29T01:21:21.163Z,8.1
2022-11-29T01:22:21.547Z,8.1
2022-11-29T01:23:21.944Z,8.1
2022-11-29T01:24:22.741Z,8.1
2022-11-29T01:25:23.132Z,8.1
2022-11-29T01:26:23.532Z,8.1
2022-11-29T01:27:24.242Z,8.1
2022-11-29T01:28:24.625Z,8.1
2022-11-29T01:29:25.296Z,8.1
2022-11-29T01:30:25.750Z,8.1
2022-11-29T01:31:26.161Z,8.1
2022-11-29T01:32:26.565Z,8.1
2022-11-29T01:33:26.947Z,8.1
2022-11-29T01:34:27.760Z,8.1
2022-11-29T01:35:28.147Z,8.1
2022-11-29T01:36:28.538Z,8.1
2022-11-29T01:37:28.924Z,8.1
2022-11-29T01:38:29.308Z,8.1
2022-11-29T01:39:29.742Z,8.1
2022-11-29T01:40:30.124Z,8.1
2022-11-29T01:41:30.514Z,8.1
2022-11-29T01:42:31.238Z,8.1
2022-11-29T01:43:31.615Z,8.1
2022-11-29T01:44:32.375Z,8.1
2022-11-29T01:45:32.757Z,8.1
2022-11-29T01:46:33.152Z,8.1
2022-11-29T01:47:33.545Z,8.1
2022-11-29T01:48:33.922Z,8.1
2022-11-29T01:49:34.621Z,8.1
2022-11-29T01:50:35.006Z,8.1
2022-11-29T01:51:35.418Z,8.1
2022-11-29T01:52:35.809Z,8.1
2022-11-29T01:53:36.194Z,8.1
2022-11-29T01:54:36.985Z,8.1
2022-11-29T01:55:37.413Z,8.1
2022-11-29T01:56:38.014Z,8.1
2022-11-29T01:57:38.818Z,8.1
2022-11-29T01:58:39.201Z,8.1
2022-11-29T01:59:39.881Z,8.1
2022-11-29T02:00:40.274Z,8.1
2022-11-29T02:01:40.712Z,8.1
2022-11-29T02:02:41.190Z,8.1
2022-11-29T02:03:41.587Z,8.1
2022-11-29T02:04:42.699Z,8.1
2022-11-29T02:05:43.306Z,8.1
2022-11-29T02:06:43.681Z,8.1
2022-11-29T02:07:44.135Z,8.1
2022-11-29T02:08:44.557Z,8.1
2022-11-29T02:09:45.231Z,8.1
2022-11-29T02:10:45.623Z,8.1
2022-11-29T02:11:46.014Z,8.1
2022-11-29T02:12:46.756Z,8.1
2022-11-29T02:13:47.139Z,8.1
2022-11-29T02:14:47.961Z,8.1
2022-11-29T02:15:48.381Z,8.1
2022-11-29T02:16:53.531Z,8.1
2022-11-29T02:17:56.748Z,8.1
2022-11-29T02:18:57.131Z,8.1
2022-11-29T02:19:57.932Z,8.1
2022-11-29T02:20:58.342Z,8.1
2022-11-29T02:21:58.740Z,8.1
2022-11-29T02:22:59.153Z,8.1
2022-11-29T02:23:59.537Z,8.1
2022-11-29T02:25:00.242Z,8.1
2022-11-29T02:26:00.596Z,8.1
2022-11-29T02:27:00.957Z,8.1
2022-11-29T02:28:01.757Z,8.1
2022-11-29T02:29:02.142Z,8.1
2022-11-29T02:30:02.821Z,8.1
2022-11-29T02:31:03.228Z,8.1
2022-11-29T02:32:03.634Z,8.1
2022-11-29T02:33:04.019Z,8.1
2022-11-29T02:34:04.410Z,8.1
2022-11-29T02:35:05.223Z,8.1
2022-11-29T02:36:05.617Z,8.1
2022-11-29T02:37:10.171Z,8.1
2022-11-29T02:38:12.028Z,8.1
2022-11-29T02:39:12.428Z,8.1
2022-11-29T02:40:13.217Z,8.1
2022-11-29T02:41:13.619Z,8.1
2022-11-29T02:42:14.001Z,8.1
2022-11-29T02:43:14.702Z,8.1
2022-11-29T02:44:15.078Z,8.1
2022-11-29T02:45:15.881Z,8.1
2022-11-29T02:46:16.326Z,8.1
2022-11-29T02:47:16.768Z,8.1
2022-11-29T02:48:17.176Z,8.1
2022-11-29T02:49:17.561Z,8.1
2022-11-29T02:50:18.248Z,8.1
2022-11-29T02:51:18.643Z,8.1
2022-11-29T02:52:19.037Z,8.1
2022-11-29T02:53:19.410Z,8.1
2022-11-29T02:54:19.809Z,8.1
2022-11-29T02:55:20.536Z,8.1
2022-11-29T02:56:20.898Z,8.1
2022-11-29T02:57:21.281Z,8.1
2022-11-29T02:58:22.083Z,8.1
2022-11-29T02:59:22.448Z,8.1
2022-11-29T03:00:23.138Z,8.1
2022-11-29T03:01:23.538Z,8.1
2022-11-29T03:02:23.977Z,8.1
2022-11-29T03:03:24.398Z,8.1
2022-11-29T03:04:24.789Z,8.1
2022-11-29T03:05:25.496Z,8.1
2022-11-29T03:06:25.889Z,8.1
2022-11-29T03:07:26.354Z,8.1
2022-11-29T03:08:26.758Z,8.1
2022-11-29T03:09:27.149Z,8.1
2022-11-29T03:10:27.976Z,8.1
2022-11-29T03:11:28.386Z,8.1
2022-11-29T03:12:28.767Z,8.1
2022-11-29T03:13:29.501Z,8.1
2022-11-29T03:14:29.888Z,8.1
2022-11-29T03:15:30.737Z,8.1
2022-11-29T03:16:31.193Z,8.1
2022-11-29T03:17:31.580Z,8.1
2022-11-29T03:18:31.969Z,8.1
2022-11-29T03:19:32.366Z,8.1
2022-11-29T03:20:33.145Z,8.1
2022-11-29T03:21:33.535Z,8.1
2022-11-29T03:22:33.923Z,8.1
2022-11-29T03:23:34.318Z,8.1
2022-11-29T03:24:34.704Z,8.1
2022-11-29T03:25:35.507Z,8.1
2022-11-29T03:26:35.894Z,8.1
2022-11-29T03:27:36.281Z,8.1
2022-11-29T03:28:37.083Z,8.1
2022-11-29T03:29:37.454Z,8.1
2022-11-29T03:30:38.284Z,8.1
2022-11-29T03:31:38.723Z,8.1
2022-11-29T03:32:39.104Z,8.1
2022-11-29T03:33:39.486Z,8.1
2022-11-29T03:34:39.875Z,8.1
2022-11-29T03:35:40.603Z,8.1
2022-11-29T03:36:41.018Z,8.1
2022-11-29T03:37:41.427Z,8.1
2022-11-29T03:38:41.811Z,8.1
2022-11-29T03:39:42.183Z,8.1
2022-11-29T03:40:43.000Z,8.1
2022-11-29T03:41:43.387Z,8.1
2022-11-29T03:42:43.786Z,8.1
2022-11-29T03:43:44.527Z,8.1
2022-11-29T03:44:45.124Z,8.1
2022-11-29T03:45:46.148Z,8.1
2022-11-29T03:46:46.531Z,8.1
2022-11-29T03:47:46.919Z,8.1
2022-11-29T03:48:47.297Z,8.1
2022-11-29T03:49:47.682Z,8.1
2022-11-29T03:50:48.413Z,8.1
2022-11-29T03:51:48.789Z,8.1
2022-11-29T03:52:49.172Z,8.1
2022-11-29T03:53:49.553Z,8.1
2022-11-29T03:54:49.940Z,8.1
2022-11-29T03:55:50.619Z,8.1
2022-11-29T03:56:51.005Z,8.1
2022-11-29T03:57:51.417Z,8.1
2022-11-29T03:58:52.093Z,8.1
2022-11-29T03:59:52.472Z,8.1
2022-11-29T04:00:53.260Z,8.1
2022-11-29T04:01:53.686Z,8.1
2022-11-29T04:02:54.123Z,8.1
2022-11-29T04:03:54.533Z,8.1
2022-11-29T04:04:54.921Z,8.1
2022-11-29T04:05:55.628Z,8.1
2022-11-29T04:06:56.013Z,8.1
2022-11-29T04:07:56.445Z,8.1
2022-11-29T04:08:56.895Z,8.1
2022-11-29T04:09:57.289Z,8.1
2022-11-29T04:10:58.150Z,8.1
2022-11-29T04:11:58.539Z,8.1
2022-11-29T04:12:58.917Z,8.1
2022-11-29T04:13:59.602Z,8.1
2022-11-29T04:14:59.974Z,8.1
2022-11-29T04:16:00.778Z,8.1
2022-11-29T04:17:01.177Z,8.1
2022-11-29T04:18:01.580Z,8.1
2022-11-29T04:19:01.961Z,8.1
2022-11-29T04:20:02.345Z,8.1
2022-11-29T04:21:03.136Z,8.1
2022-11-29T04:22:03.519Z,8.1
2022-11-29T04:23:03.893Z,8.1
2022-11-29T04:24:04.288Z,8.1
2022-11-29T04:25:04.708Z,8.1
2022-11-29T04:26:05.430Z,8.1
2022-11-29T04:27:05.816Z,8.1
2022-11-29T04:28:06.212Z,8.1
2022-11-29T04:29:07.015Z,8.1
2022-11-29T04:30:07.413Z,8.1
2022-11-29T04:31:08.226Z,8.1
2022-11-29T04:32:08.650Z,8.1
2022-11-29T04:33:09.012Z,8.1
2022-11-29T04:34:09.397Z,8.1
2022-11-29T04:35:09.797Z,8.1
2022-11-29T04:36:10.480Z,8.1
2022-11-29T04:37:10.859Z,8.1
2022-11-29T04:38:11.244Z,8.1
2022-11-29T04:39:11.634Z,8.1
2022-11-29T04:40:12.032Z,8.1
2022-11-29T04:41:12.821Z,8.1
2022-11-29T04:42:13.207Z,8.1
2022-11-29T04:43:13.588Z,8.1
2022-11-29T04:44:14.035Z,8.1
2022-11-29T04:45:14.425Z,8.1
2022-11-29T04:46:15.235Z,8.1
2022-11-29T04:47:15.641Z,8.1
2022-11-29T04:48:16.022Z,8.1
2022-11-29T04:49:16.411Z,8.1
2022-11-29T04:50:16.804Z,8.1
2022-11-29T04:51:17.574Z,8.1
2022-11-29T04:52:17.955Z,8.1
2022-11-29T04:53:18.340Z,8.1
2022-11-29T04:54:18.723Z,8.1
2022-11-29T04:55:26.347Z,8.1
2022-11-29T04:56:31.380Z,8.1
2022-11-29T04:57:31.769Z,8.1
2022-11-29T04:58:32.147Z,8.1
2022-11-29T04:59:32.950Z,8.1
2022-11-29T05:00:33.336Z,8.1
2022-11-29T05:01:34.230Z,8.1
2022-11-29T05:02:34.716Z,8.1
2022-11-29T05:03:35.128Z,8.1
2022-11-29T05:04:35.526Z,8.1
2022-11-29T05:05:35.910Z,8.1
2022-11-29T05:06:36.692Z,8.1
2022-11-29T05:07:37.131Z,8.1
2022-11-29T05:08:37.523Z,8.1
2022-11-29T05:09:37.903Z,8.1
2022-11-29T05:10:38.285Z,8.1
2022-11-29T05:11:38.692Z,8.1
2022-11-29T05:12:39.082Z,8.1
2022-11-29T05:13:39.477Z,8.1
2022-11-29T05:14:40.305Z,8.1
2022-11-29T05:15:40.740Z,8.1
2022-11-29T05:16:41.485Z,8.1
2022-11-29T05:17:41.872Z,8.1
2022-11-29T05:18:42.259Z,8.1
2022-11-29T05:19:42.650Z,8.1
2022-11-29T05:20:43.051Z,8.1
2022-11-29T05:21:43.740Z,8.1
2022-11-29T05:22:44.133Z,8.1
2022-11-29T05:23:44.518Z,8.1
2022-11-29T05:24:45.218Z,8.1
2022-11-29T05:25:45.853Z,8.1
2022-11-29T05:26:46.702Z,8.1
2022-11-29T05:27:47.094Z,8.1
2022-11-29T05:28:47.483Z,8.1
2022-11-29T05:29:48.272Z,8.1
2022-11-29T05:30:48.701Z,8.1
2022-11-29T05:31:49.179Z,8.1
2022-11-29T05:32:49.559Z,8.1
2022-11-29T05:33:49.932Z,8.1
2022-11-29T05:34:50.801Z,8.1
2022-11-29T05:35:51.473Z,8.1
2022-11-29T05:36:52.169Z,8.1
2022-11-29T05:37:52.574Z,8.1
2022-11-29T05:38:52.970Z,8.1
2022-11-29T05:39:53.346Z,8.1
2022-11-29T05:40:53.727Z,8.1
2022-11-29T05:41:54.482Z,8.1
2022-11-29T05:42:54.858Z,8.1
2022-11-29T05:43:55.246Z,8.1
2022-11-29T05:44:55.966Z,8.1
2022-11-29T05:45:56.350Z,8.1
2022-11-29T05:46:57.012Z,8.1
2022-11-29T05:47:57.405Z,8.1
2022-11-29T05:48:57.806Z,8.1
2022-11-29T05:49:58.214Z,8.1
2022-11-29T05:50:58.599Z,8.1
2022-11-29T05:51:59.266Z,8.1
2022-11-29T05:52:59.647Z,8.1
2022-11-29T05:54:00.038Z,8.1
2022-11-29T05:55:00.426Z,8.1
2022-11-29T05:56:00.769Z,8.1
2022-11-29T05:57:01.493Z,8.1
2022-11-29T05:58:01.880Z,8.1
2022-11-29T05:59:02.267Z,8.1
2022-11-29T06:00:02.977Z,8.1
2022-11-29T06:01:03.375Z,8.1
2022-11-29T06:02:04.207Z,8.1
2022-11-29T06:03:04.744Z,8.1
2022-11-29T06:04:09.055Z,8.1
2022-11-29T06:05:12.180Z,8.1
2022-11-29T06:06:12.567Z,8.1
2022-11-29T06:07:13.359Z,8.1
2022-11-29T06:08:13.740Z,8.1
2022-11-29T06:09:14.129Z,8.1
2022-11-29T06:10:14.534Z,8.1
2022-11-29T06:11:14.907Z,8.1
2022-11-29T06:12:19.619Z,8.1
2022-11-29T06:13:21.526Z,8.1
2022-11-29T06:14:21.914Z,8.1
2022-11-29T06:15:22.614Z,8.1
2022-11-29T06:16:23.062Z,8.1
2022-11-29T06:17:23.818Z,8.1
2022-11-29T06:18:24.202Z,8.1
2022-11-29T06:19:24.610Z,8.1
2022-11-29T06:20:25.008Z,8.1
2022-11-29T06:21:25.389Z,8.1
2022-11-29T06:22:26.174Z,8.1
2022-11-29T06:23:26.558Z,8.1
2022-11-29T06:24:26.948Z,8.1
2022-11-29T06:25:27.363Z,8.1
2022-11-29T06:26:27.778Z,8.1
2022-11-29T06:27:28.466Z,8.1
2022-11-29T06:28:28.850Z,8.1
2022-11-29T06:29:29.229Z,8.1
2022-11-29T06:30:30.072Z,8.1
2022-11-29T06:31:30.525Z,8.1
2022-11-29T06:32:31.267Z,8.1
2022-11-29T06:33:31.650Z,8.1
2022-11-29T06:34:32.043Z,8.1
2022-11-29T06:35:32.426Z,8.1
2022-11-29T06:36:32.814Z,8.1
2022-11-29T06:37:33.520Z,8.1
2022-11-29T06:38:33.918Z,8.1
2022-11-29T06:39:34.315Z,8.1
2022-11-29T06:40:34.684Z,8.1
2022-11-29T06:41:35.122Z,8.1
2022-11-29T06:42:35.793Z,8.1
2022-11-29T06:43:36.171Z,8.1
2022-11-29T06:44:36.553Z,8.1
2022-11-29T06:45:37.346Z,8.1
2022-11-29T06:46:37.818Z,8.1
2022-11-29T06:47:38.529Z,8.1
2022-11-29T06:48:38.918Z,8.1
2022-11-29T06:49:39.313Z,8.1
2022-11-29T06:50:39.813Z,8.1
2022-11-29T06:51:40.203Z,8.1
2022-11-29T06:52:40.886Z,8.1
2022-11-29T06:53:41.278Z,8.1
2022-11-29T06:54:41.663Z,8.1
2022-11-29T06:55:42.024Z,8.1
2022-11-29T06:56:42.397Z,8.1
2022-11-29T06:57:43.188Z,8.1
2022-11-29T06:58:43.580Z,8.1
2022-11-29T06:59:44.097Z,8.1
2022-11-29T07:00:44.917Z,8.1
2022-11-29T07:01:45.590Z,8.1
2022-11-29T07:02:46.378Z,8.1
2022-11-29T07:03:46.763Z,8.1
2022-11-29T07:04:47.368Z,8.1
2022-11-29T07:05:48.058Z,8.1
2022-11-29T07:06:48.449Z,8.1
2022-11-29T07:07:49.325Z,8.1
2022-11-29T07:08:49.766Z,8.1
2022-11-29T07:09:50.154Z,8.1
2022-11-29T07:10:50.544Z,8.1
2022-11-29T07:11:50.940Z,8.1
2022-11-29T07:12:51.750Z,8.1
2022-11-29T07:13:52.134Z,8.1
2022-11-29T07:14:52.564Z,8.1
2022-11-29T07:15:53.361Z,8.1
2022-11-29T07:16:57.270Z,8.1
2022-11-29T07:17:58.467Z,8.1
2022-11-29T07:18:58.848Z,8.1
2022-11-29T07:19:59.232Z,8.1
2022-11-29T07:20:59.624Z,8.1
2022-11-29T07:22:00.008Z,8.1
2022-11-29T07:23:00.823Z,8.1
2022-11-29T07:24:01.189Z,8.1
2022-11-29T07:25:01.568Z,8.1
2022-11-29T07:26:01.951Z,8.1
2022-11-29T07:27:02.329Z,8.1
2022-11-29T07:28:03.066Z,8.1
2022-11-29T07:29:03.449Z,8.1
2022-11-29T07:30:03.877Z,8.1
2022-11-29T07:31:04.728Z,8.1
2022-11-29T07:32:05.486Z,7.7
2022-11-29T07:34:19.276Z,7.7
2022-11-29T07:35:19.649Z,7.7
2022-11-29T07:36:20.036Z,7.7
2022-11-29T07:37:20.843Z,7.7
2022-11-29T10:32:58.930Z,8.4
2022-11-29T10:33:59.317Z,8.4
2022-11-29T10:34:59.699Z,8.4
2022-11-29T10:36:00.085Z,8.4
2022-11-29T10:37:00.453Z,8.4
2022-11-29T10:38:29.796Z,8.4
2022-11-29T10:39:31.427Z,8.4
2022-11-29T10:40:31.822Z,8.4
2022-11-29T10:41:32.202Z,8.5
2022-11-29T10:42:33.034Z,8.5
2022-11-29T10:43:33.439Z,8.5
2022-11-29T10:44:33.823Z,8.5
2022-11-29T10:45:34.208Z,8.5
2022-11-29T10:46:34.660Z,8.5
2022-11-29T10:47:35.402Z,8.5
2022-11-29T10:48:36.089Z,8.5
2022-11-29T10:49:36.496Z,8.5
2022-11-29T10:50:36.910Z,8.4
2022-11-29T10:51:37.305Z,8.4
2022-11-29T10:52:37.993Z,8.5
2022-11-29T10:53:38.384Z,8.5
2022-11-29T10:54:38.772Z,8.5
2022-11-29T10:55:39.148Z,8.5
2022-11-29T10:56:39.550Z,8.4
2022-11-29T10:57:40.334Z,8.4
2022-11-29T10:58:40.717Z,8.4
2022-11-29T10:59:41.097Z,8.4
2022-11-29T11:00:41.479Z,8.4
2022-11-29T11:01:41.917Z,8.4
2022-11-29T11:02:42.647Z,8.4
2022-11-29T11:03:43.439Z,8.4
2022-11-29T11:04:44.302Z,8.5
2022-11-29T11:05:44.930Z,8.5
2022-11-29T11:06:45.331Z,8.5
2022-11-29T11:07:46.117Z,8.5
2022-11-29T11:08:46.556Z,8.5
2022-11-29T11:09:46.932Z,8.5
2022-11-29T11:10:53.040Z,8.4
2022-11-29T11:11:54.948Z,8.4
2022-11-29T11:12:55.658Z,8.4
2022-11-29T11:13:56.051Z,8.4
2022-11-29T11:14:56.446Z,8.4
2022-11-29T11:15:56.840Z,8.4
2022-11-29T11:16:57.297Z,8.4
2022-11-29T11:17:58.047Z,8.4
2022-11-29T11:18:58.760Z,8.4
2022-11-29T11:19:59.145Z,8.4
2022-11-29T11:20:59.517Z,8.4
2022-11-29T11:21:59.903Z,8.4
2022-11-29T11:23:00.630Z,8.4
2022-11-29T11:24:01.006Z,8.4
2022-11-29T11:25:01.399Z,8.5
2022-11-29T11:26:01.832Z,8.5
2022-11-29T11:27:02.208Z,8.5
2022-11-29T11:28:03.004Z,8.5
2022-11-29T11:29:03.411Z,8.5
2022-11-29T11:30:03.825Z,8.4
2022-11-29T11:31:04.273Z,8.4
2022-11-29T11:32:04.683Z,8.4
2022-11-29T11:33:05.479Z,8.4
2022-11-29T11:34:06.214Z,8.5
2022-11-29T11:35:06.603Z,8.5
2022-11-29T11:36:06.986Z,8.5
2022-11-29T11:37:07.362Z,8.5
2022-11-29T11:38:08.125Z,8.5
2022-11-29T11:39:08.541Z,8.5
2022-11-29T11:40:08.961Z,8.5
2022-11-29T11:41:09.476Z,8.5
2022-11-29T11:42:10.267Z,8.5
2022-11-29T11:43:10.670Z,8.5
2022-11-29T11:44:15.287Z,8.5
2022-11-29T11:45:20.386Z,8.5
2022-11-29T11:46:20.792Z,8.5
2022-11-29T11:47:21.553Z,8.5
2022-11-29T11:48:22.373Z,8.5
2022-11-29T11:49:22.728Z,8.5
2022-11-29T11:50:23.099Z,8.5
2022-11-29T11:51:23.447Z,8.5
2022-11-29T11:52:24.112Z,8.5
2022-11-29T11:53:24.497Z,8.5
2022-11-29T11:54:24.876Z,8.5
2022-11-29T11:55:25.262Z,8.5
2022-11-29T11:56:25.656Z,8.5
2022-11-29T11:57:26.413Z,8.5
2022-11-29T11:58:26.794Z,8.5
2022-11-29T11:59:27.189Z,8.5
2022-11-29T12:00:55.399Z,8.5
2022-11-29T12:02:02.626Z,8.5
2022-11-29T12:03:03.642Z,8.5
2022-11-29T12:04:04.113Z,8.5
2022-11-29T12:05:04.492Z,8.5
2022-11-29T12:06:04.875Z,8.5
2022-11-29T12:07:05.275Z,8.5
2022-11-29T12:08:08.442Z,8.5
2022-11-29T12:09:09.201Z,8.5
2022-11-29T12:10:09.609Z,8.5
2022-11-29T12:11:10.013Z,8.5
2022-11-29T12:12:10.385Z,8.6
2022-11-29T12:13:11.079Z,8.5
2022-11-29T12:14:11.475Z,8.5
2022-11-29T12:15:11.875Z,8.5
2022-11-29T12:16:12.286Z,8.5
2022-11-29T12:17:16.979Z,8.5
2022-11-29T12:18:20.693Z,8.5
2022-11-29T12:19:21.070Z,8.5
2022-11-29T12:20:21.492Z,8.5
2022-11-29T12:21:21.879Z,8.5
2022-11-29T12:22:22.233Z,8.5
2022-11-29T12:23:22.932Z,8.4
2022-11-29T12:24:23.349Z,8.4
2022-11-29T12:25:23.734Z,8.4
2022-11-29T12:26:55.285Z,8.4
2022-11-29T12:27:57.142Z,8.4
2022-11-29T12:28:57.870Z,8.4
2022-11-29T12:29:58.273Z,8.4
2022-11-29T12:30:58.693Z,8.4
2022-11-29T12:31:59.118Z,8.4
2022-11-29T12:32:59.816Z,8.4
2022-11-29T12:34:00.622Z,8.4
2022-11-29T12:35:00.995Z,8.4
2022-11-29T12:36:01.368Z,8.4
2022-11-29T12:37:01.757Z,8.4
2022-11-29T12:38:02.547Z,8.4
2022-11-29T12:39:02.935Z,8.4
2022-11-29T12:40:03.362Z,8.4
2022-11-29T12:41:03.752Z,8.4
2022-11-29T12:42:04.145Z,8.4
2022-11-29T12:43:04.892Z,8.4
2022-11-29T12:44:05.312Z,8.4
2022-11-29T12:45:05.702Z,8.4
2022-11-29T12:46:06.154Z,8.4
2022-11-29T12:47:34.652Z,8.4
2022-11-29T12:48:36.770Z,8.4
2022-11-29T12:49:37.191Z,8.4
2022-11-29T12:50:37.587Z,8.4
2022-11-29T12:51:37.976Z,8.4
2022-11-29T12:52:38.378Z,8.4
2022-11-29T12:53:39.063Z,8.4
2022-11-29T12:54:39.458Z,8.4
2022-11-29T12:55:39.838Z,8.4
2022-11-29T12:56:40.224Z,8.4
2022-11-29T12:57:40.608Z,8.4
2022-11-29T12:58:45.646Z,8.4
2022-11-29T12:59:46.547Z,8.4
2022-11-29T13:00:46.940Z,8.4
2022-11-29T13:01:47.394Z,8.4
2022-11-29T13:02:47.940Z,8.4
2022-11-29T13:03:48.679Z,8.4
2022-11-29T13:04:49.353Z,8.4
2022-11-29T13:05:50.713Z,8.4
2022-11-29T13:06:51.124Z,8.4
2022-11-29T13:07:51.557Z,8.5
2022-11-29T13:08:52.381Z,8.5
2022-11-29T13:09:52.771Z,8.5
2022-11-29T13:10:53.159Z,8.5
2022-11-29T13:11:53.543Z,8.5
2022-11-29T13:12:53.942Z,8.5
2022-11-29T13:14:03.796Z,8.5
2022-11-29T13:15:20.417Z,8.5
2022-11-29T13:16:25.065Z,8.5
2022-11-29T13:17:28.145Z,8.5
2022-11-29T13:18:28.938Z,8.5
2022-11-29T13:19:29.678Z,8.5
2022-11-29T13:20:30.062Z,8.5
2022-11-29T13:21:30.460Z,8.4
2022-11-29T13:22:30.855Z,8.4
2022-11-29T13:23:45.586Z,8.4
2022-11-29T13:25:01.019Z,8.4
2022-11-29T13:26:01.518Z,8.4
2022-11-29T13:27:01.909Z,8.4
2022-11-29T13:28:02.580Z,8.4
2022-11-29T13:29:02.969Z,8.4
2022-11-29T13:30:03.340Z,8.4
2022-11-29T13:31:03.770Z,8.4
2022-11-29T13:32:04.182Z,8.4
2022-11-29T13:33:04.850Z,8.4
2022-11-29T13:34:05.599Z,8.4
2022-11-29T13:35:05.977Z,8.4
2022-11-29T13:36:06.366Z,8.4
2022-11-29T13:37:06.762Z,8.4
2022-11-29T13:38:07.481Z,8.4
2022-11-29T13:39:07.880Z,8.4
2022-11-29T13:40:08.269Z,8.4
2022-11-29T13:41:08.652Z,8.4
2022-11-29T13:42:09.039Z,8.4
2022-11-29T13:43:09.822Z,8.4
2022-11-29T13:44:10.222Z,8.4
2022-11-29T13:45:10.629Z,8.4
2022-11-29T13:46:11.038Z,8.4
2022-11-29T13:47:11.468Z,8.4
2022-11-29T13:48:12.152Z,8.4
2022-11-29T13:49:12.942Z,8.4
2022-11-29T13:50:13.326Z,8.4
2022-11-29T13:51:13.707Z,8.4
2022-11-29T13:52:14.107Z,8.4
2022-11-29T13:53:14.895Z,8.4
2022-11-29T13:54:15.270Z,8.4
2022-11-29T13:55:15.656Z,8.4
2022-11-29T13:56:16.040Z,8.4
2022-11-29T13:57:16.432Z,8.4
2022-11-29T13:58:18.139Z,8.4
2022-11-29T13:59:18.885Z,8.4
2022-11-29T14:00:19.280Z,8.4
2022-11-29T14:01:19.729Z,8.4
2022-11-29T14:02:20.163Z,8.4
2022-11-29T14:03:20.904Z,8.4
2022-11-29T14:04:21.609Z,8.4
2022-11-29T14:05:22.003Z,8.4
2022-11-29T14:06:22.405Z,8.4
2022-11-29T14:07:22.819Z,8.4
2022-11-29T14:08:23.681Z,8.4
2022-11-29T14:09:24.060Z,8.4
2022-11-29T14:10:29.040Z,8.4
2022-11-29T14:11:29.879Z,8.4
2022-11-29T14:12:30.261Z,8.4
2022-11-29T14:13:31.000Z,8.4
2022-11-29T14:14:31.379Z,8.4
2022-11-29T14:15:31.764Z,8.4
2022-11-29T14:16:32.149Z,8.4
2022-11-29T14:17:32.540Z,8.4
2022-11-29T14:18:33.344Z,8.4
2022-11-29T14:19:34.485Z,8.4
2022-11-29T14:20:34.970Z,8.4
2022-11-29T14:21:35.361Z,8.4
2022-11-29T14:22:35.729Z,8.4
2022-11-29T14:23:36.462Z,8.3
2022-11-29T14:24:36.884Z,8.3
2022-11-29T14:25:51.535Z,8.3
2022-11-29T14:26:52.604Z,8.3
2022-11-29T14:27:52.989Z,8.3
2022-11-29T14:28:53.874Z,8.3
2022-11-29T14:29:54.259Z,8.3
2022-11-29T14:30:54.759Z,8.2
2022-11-29T14:31:55.172Z,8.2
2022-11-29T14:32:55.566Z,8.2
2022-11-29T14:33:56.355Z,8.2
2022-11-29T14:34:57.340Z,8.2
2022-11-29T14:35:57.750Z,8.2
2022-11-29T14:36:58.132Z,8.2
2022-11-29T14:37:58.818Z,8.2
2022-11-29T14:38:59.489Z,8.2
2022-11-29T14:39:59.871Z,8.2
2022-11-29T14:41:00.264Z,8.2
2022-11-29T14:42:00.610Z,8.2
2022-11-29T14:43:01.319Z,8.2
2022-11-29T14:44:01.710Z,8.2
2022-11-29T14:45:02.084Z,8.2
2022-11-29T14:46:02.468Z,8.2
2022-11-29T14:47:02.896Z,8.2
2022-11-29T14:48:03.723Z,8.2
2022-11-29T14:49:04.106Z,8.2
2022-11-29T14:50:04.731Z,8.2
2022-11-29T14:51:05.166Z,8.2
2022-11-29T14:52:05.545Z,8.2
2022-11-29T14:53:06.100Z,8.2
2022-11-29T14:54:06.450Z,8.2
2022-11-29T14:55:06.833Z,8.2
2022-11-29T14:56:07.230Z,8.2
2022-11-29T14:57:07.619Z,8.2
2022-11-29T14:58:08.433Z,8.2
2022-11-29T14:59:08.834Z,8.2
2022-11-29T15:00:09.226Z,8.2
2022-11-29T15:01:10.701Z,8.2
2022-11-29T15:02:11.811Z,8.2
2022-11-29T15:03:12.547Z,8.2
2022-11-29T15:04:13.145Z,8.2
2022-11-29T15:05:14.095Z,8.2
2022-11-29T15:06:14.466Z,8.1
2022-11-29T15:07:14.849Z,8.1
2022-11-29T15:08:15.596Z,8.1
2022-11-29T15:09:15.986Z,8.1
2022-11-29T15:10:16.382Z,8.1
2022-11-29T15:11:16.774Z,8
2022-11-29T15:12:17.564Z,8
2022-11-29T15:13:17.961Z,8
2022-11-29T15:14:18.347Z,8
2022-11-29T15:15:18.731Z,8
2022-11-29T15:16:19.195Z,8
2022-11-29T15:17:20.031Z,8
2022-11-29T15:18:20.416Z,8
2022-11-29T15:19:20.804Z,8
2022-11-29T15:20:21.654Z,8
2022-11-29T15:21:22.067Z,7.9
2022-11-29T15:22:22.804Z,7.9
2022-11-29T15:23:23.180Z,7.9
2022-11-29T15:24:28.158Z,7.9
2022-11-29T15:25:29.213Z,7.9
2022-11-29T15:26:29.746Z,7.9
2022-11-29T15:27:30.591Z,7.9
2022-11-29T15:28:30.989Z,7.9
2022-11-29T15:29:31.371Z,7.8
2022-11-29T15:30:31.753Z,7.8
2022-11-29T15:31:32.183Z,7.8
2022-11-29T15:32:32.927Z,7.8
2022-11-29T15:33:33.316Z,7.8
2022-11-29T15:34:33.701Z,7.8
2022-11-29T15:35:34.498Z,7.8
2022-11-29T15:36:34.887Z,7.8
2022-11-29T15:37:35.689Z,7.7
2022-11-29T15:38:36.078Z,7.7
2022-11-29T15:39:36.484Z,7.7
2022-11-29T15:40:36.869Z,7.7
2022-11-29T15:41:37.255Z,7.7
2022-11-29T15:42:38.045Z,7.7
2022-11-29T15:43:38.423Z,7.7
2022-11-29T15:44:38.829Z,7.7
2022-11-29T15:45:39.259Z,7.7
2022-11-29T15:46:39.647Z,7.7
2022-11-29T15:47:40.320Z,7.7
2022-11-29T15:48:40.731Z,7.7
2022-11-29T15:49:41.117Z,7.7
2022-11-29T15:50:41.954Z,7.7
2022-11-29T15:51:42.339Z,7.7
2022-11-29T15:52:43.127Z,7.7
2022-11-29T15:53:43.514Z,7.7
2022-11-29T15:54:44.268Z,7.7
2022-11-29T15:55:44.782Z,7.6
2022-11-29T15:56:45.164Z,7.6
2022-11-29T15:57:45.749Z,7.6
2022-11-29T15:58:46.175Z,7.6
2022-11-29T15:59:46.556Z,7.6
2022-11-29T16:00:47.049Z,7.6
2022-11-29T16:01:47.541Z,7.6
2022-11-29T16:02:48.140Z,7.6
2022-11-29T16:03:48.496Z,7.6
2022-11-29T16:04:49.432Z,7.6
2022-11-29T16:05:50.244Z,7.6
2022-11-29T16:06:50.644Z,7.6
2022-11-29T16:07:51.239Z,7.6
2022-11-29T16:08:51.672Z,7.6
2022-11-29T16:09:52.052Z,7.6
2022-11-29T16:10:52.426Z,7.6
2022-11-29T16:11:52.826Z,7.6
2022-11-29T16:12:53.540Z,7.6
2022-11-29T16:13:53.937Z,7.6
2022-11-29T16:14:54.316Z,7.6
2022-11-29T16:15:54.703Z,7.6
2022-11-29T16:16:55.093Z,7.6
2022-11-29T16:17:55.892Z,7.6
2022-11-29T16:18:56.271Z,7.6
2022-11-29T16:19:56.697Z,7.6
2022-11-29T16:20:57.442Z,7.6
2022-11-29T16:21:57.838Z,7.6
2022-11-29T16:22:58.578Z,7.6
2022-11-29T16:23:58.966Z,7.6
2022-11-29T16:24:59.343Z,7.6
2022-11-29T16:25:59.734Z,7.6
2022-11-29T16:27:00.126Z,7.6
2022-11-29T16:28:00.915Z,7.6
2022-11-29T16:29:01.294Z,7.6
2022-11-29T16:30:01.675Z,7.6
2022-11-29T16:31:02.024Z,7.6
2022-11-29T16:32:02.463Z,7.6
2022-11-29T16:33:03.330Z,7.6
2022-11-29T16:34:03.702Z,7.6
2022-11-29T16:35:04.079Z,7.6
2022-11-29T16:36:04.817Z,7.6
2022-11-29T16:37:05.228Z,7.6
2022-11-29T16:38:05.971Z,7.6
2022-11-29T16:39:06.319Z,7.6
2022-11-29T16:40:06.698Z,7.6
2022-11-29T16:41:07.052Z,7.6
2022-11-29T16:42:07.439Z,7.6
2022-11-29T16:43:08.121Z,7.6
2022-11-29T16:44:08.547Z,7.6
2022-11-29T16:45:08.971Z,7.6
2022-11-29T16:46:09.393Z,7.6
2022-11-29T16:47:09.798Z,7.6
2022-11-29T16:48:10.528Z,7.6
2022-11-29T16:49:10.961Z,7.5
2022-11-29T16:50:11.348Z,7.5
2022-11-29T16:51:12.019Z,7.5
2022-11-29T16:52:12.430Z,7.5
2022-11-29T16:53:13.232Z,7.5
2022-11-29T16:54:13.594Z,7.5